Terminal Aerodrome Forecast
Issued by NWS

Home | Current Version | Previous Version | Text Only | Print | Product List | Glossary On
Versions: 1 2 3 4 5 6 7 8 9 10 11 12 13 14 15 16 17 18 19 20 21 22
000
FTUS43 KDTX 011504 AAA
TAFDET
TAF AMD
KDET 011504Z 0115/0212 05013KT 3/4SM -SN VV007
     FM012200 05018G25KT 1/4SM +SN BLSN VV002
     FM020400 03018G25KT 1SM -SN BLSN OVC008
     FM020600 36018KT 2SM -SN OVC012
     FM021100 34015KT P6SM OVC020=

USA.gov is the U.S. government's official web portal to all federal, state and local government web resources and services.